sensor_id;sensor_type;location;lat;lon;timestamp;P1;durP1;ratioP1;P2;durP2;ratioP2
35917;SDS011;22011;59.912;30.300;2023-08-12T00:00:01;5.90;;;3.55;;
35917;SDS011;22011;59.912;30.300;2023-08-12T00:02:37;9.25;;;3.80;;
35917;SDS011;22011;59.912;30.300;2023-08-12T00:05:05;6.63;;;3.75;;
35917;SDS011;22011;59.912;30.300;2023-08-12T00:07:33;6.10;;;3.58;;
35917;SDS011;22011;59.912;30.300;2023-08-12T00:10:01;6.30;;;3.72;;
35917;SDS011;22011;59.912;30.300;2023-08-12T00:12:31;5.93;;;3.50;;
35917;SDS011;22011;59.912;30.300;2023-08-12T00:17:27;7.38;;;3.15;;
35917;SDS011;22011;59.912;30.300;2023-08-12T00:19:55;4.75;;;3.15;;
35917;SDS011;22011;59.912;30.300;2023-08-12T00:22:23;7.35;;;3.58;;
35917;SDS011;22011;59.912;30.300;2023-08-12T00:24:50;4.78;;;3.15;;
35917;SDS011;22011;59.912;30.300;2023-08-12T00:27:18;4.22;;;3.00;;
35917;SDS011;22011;59.912;30.300;2023-08-12T00:29:48;3.63;;;3.13;;
35917;SDS011;22011;59.912;30.300;2023-08-12T00:32:16;3.67;;;2.83;;
35917;SDS011;22011;59.912;30.300;2023-08-12T00:34:43;5.80;;;2.67;;
35917;SDS011;22011;59.912;30.300;2023-08-12T00:37:11;4.68;;;3.25;;
35917;SDS011;22011;59.912;30.300;2023-08-12T00:39:38;4.97;;;2.83;;
35917;SDS011;22011;59.912;30.300;2023-08-12T00:42:06;3.45;;;2.97;;
35917;SDS011;22011;59.912;30.300;2023-08-12T00:44:34;5.72;;;2.85;;
35917;SDS011;22011;59.912;30.300;2023-08-12T00:47:03;4.60;;;2.60;;
35917;SDS011;22011;59.912;30.300;2023-08-12T00:49:31;5.25;;;2.78;;
35917;SDS011;22011;59.912;30.300;2023-08-12T00:52:00;3.58;;;3.03;;
35917;SDS011;22011;59.912;30.300;2023-08-12T00:54:28;6.95;;;3.45;;
35917;SDS011;22011;59.912;30.300;2023-08-12T00:56:56;6.68;;;3.25;;
35917;SDS011;22011;59.912;30.300;2023-08-12T00:59:24;6.97;;;3.20;;
35917;SDS011;22011;59.912;30.300;2023-08-12T01:01:53;3.60;;;3.30;;
35917;SDS011;22011;59.912;30.300;2023-08-12T01:04:22;6.95;;;3.80;;
35917;SDS011;22011;59.912;30.300;2023-08-12T01:06:50;6.95;;;4.13;;
35917;SDS011;22011;59.912;30.300;2023-08-12T01:09:18;4.47;;;3.72;;
35917;SDS011;22011;59.912;30.300;2023-08-12T01:11:47;5.05;;;3.03;;
35917;SDS011;22011;59.912;30.300;2023-08-12T01:14:23;5.80;;;3.08;;
35917;SDS011;22011;59.912;30.300;2023-08-12T01:17:03;5.47;;;3.13;;
35917;SDS011;22011;59.912;30.300;2023-08-12T01:19:36;4.07;;;2.92;;
35917;SDS011;22011;59.912;30.300;2023-08-12T01:22:06;3.70;;;2.72;;
35917;SDS011;22011;59.912;30.300;2023-08-12T01:24:37;5.00;;;2.85;;
35917;SDS011;22011;59.912;30.300;2023-08-12T01:27:06;4.55;;;2.60;;
35917;SDS011;22011;59.912;30.300;2023-08-12T01:29:39;6.13;;;3.33;;
35917;SDS011;22011;59.912;30.300;2023-08-12T01:32:12;5.60;;;3.05;;
35917;SDS011;22011;59.912;30.300;2023-08-12T01:34:47;8.30;;;3.38;;
35917;SDS011;22011;59.912;30.300;2023-08-12T01:37:20;6.57;;;3.17;;
35917;SDS011;22011;59.912;30.300;2023-08-12T01:39:54;6.10;;;3.50;;
35917;SDS011;22011;59.912;30.300;2023-08-12T01:42:26;8.90;;;3.47;;
35917;SDS011;22011;59.912;30.300;2023-08-12T01:44:56;6.47;;;3.65;;
35917;SDS011;22011;59.912;30.300;2023-08-12T01:47:24;6.30;;;3.55;;
35917;SDS011;22011;59.912;30.300;2023-08-12T01:49:53;6.88;;;3.78;;
35917;SDS011;22011;59.912;30.300;2023-08-12T01:52:20;7.43;;;3.60;;
35917;SDS011;22011;59.912;30.300;2023-08-12T01:54:48;6.00;;;3.22;;
35917;SDS011;22011;59.912;30.300;2023-08-12T01:57:17;5.35;;;3.20;;
35917;SDS011;22011;59.912;30.300;2023-08-12T01:59:45;4.88;;;2.92;;
35917;SDS011;22011;59.912;30.300;2023-08-12T02:02:12;5.30;;;2.90;;
35917;SDS011;22011;59.912;30.300;2023-08-12T02:04:40;5.95;;;3.60;;
35917;SDS011;22011;59.912;30.300;2023-08-12T02:07:09;5.53;;;3.03;;
35917;SDS011;22011;59.912;30.300;2023-08-12T02:09:36;4.60;;;2.75;;
35917;SDS011;22011;59.912;30.300;2023-08-12T02:12:04;6.22;;;3.83;;
35917;SDS011;22011;59.912;30.300;2023-08-12T02:14:34;6.13;;;4.03;;
35917;SDS011;22011;59.912;30.300;2023-08-12T02:17:02;8.48;;;4.50;;
35917;SDS011;22011;59.912;30.300;2023-08-12T02:19:31;7.57;;;4.85;;
35917;SDS011;22011;59.912;30.300;2023-08-12T02:21:59;7.40;;;4.80;;
35917;SDS011;22011;59.912;30.300;2023-08-12T02:24:29;6.60;;;4.55;;
35917;SDS011;22011;59.912;30.300;2023-08-12T02:26:58;9.95;;;4.32;;
35917;SDS011;22011;59.912;30.300;2023-08-12T02:29:25;5.60;;;4.10;;
35917;SDS011;22011;59.912;30.300;2023-08-12T02:31:54;6.38;;;3.80;;
35917;SDS011;22011;59.912;30.300;2023-08-12T02:34:22;6.20;;;4.20;;
35917;SDS011;22011;59.912;30.300;2023-08-12T02:36:51;9.02;;;3.72;;
35917;SDS011;22011;59.912;30.300;2023-08-12T02:39:19;7.65;;;4.10;;
35917;SDS011;22011;59.912;30.300;2023-08-12T02:41:46;6.75;;;4.38;;
35917;SDS011;22011;59.912;30.300;2023-08-12T02:44:14;6.53;;;5.03;;
35917;SDS011;22011;59.912;30.300;2023-08-12T02:46:42;7.13;;;4.38;;
35917;SDS011;22011;59.912;30.300;2023-08-12T02:49:11;6.18;;;3.97;;
35917;SDS011;22011;59.912;30.300;2023-08-12T02:51:38;4.67;;;3.53;;
35917;SDS011;22011;59.912;30.300;2023-08-12T02:54:06;6.68;;;3.83;;
35917;SDS011;22011;59.912;30.300;2023-08-12T02:56:33;4.25;;;2.80;;
35917;SDS011;22011;59.912;30.300;2023-08-12T02:59:01;4.05;;;2.80;;
35917;SDS011;22011;59.912;30.300;2023-08-12T03:01:29;3.88;;;2.90;;
35917;SDS011;22011;59.912;30.300;2023-08-12T03:03:56;5.05;;;2.92;;
35917;SDS011;22011;59.912;30.300;2023-08-12T03:06:26;5.50;;;3.22;;
35917;SDS011;22011;59.912;30.300;2023-08-12T03:08:53;5.18;;;3.40;;
35917;SDS011;22011;59.912;30.300;2023-08-12T03:11:21;6.28;;;3.75;;
35917;SDS011;22011;59.912;30.300;2023-08-12T03:13:49;8.77;;;3.63;;
35917;SDS011;22011;59.912;30.300;2023-08-12T03:16:18;8.35;;;5.38;;
35917;SDS011;22011;59.912;30.300;2023-08-12T03:18:47;11.50;;;4.50;;
35917;SDS011;22011;59.912;30.300;2023-08-12T03:21:15;9.68;;;3.90;;
35917;SDS011;22011;59.912;30.300;2023-08-12T03:23:44;6.05;;;3.50;;
35917;SDS011;22011;59.912;30.300;2023-08-12T03:26:12;6.05;;;3.30;;
35917;SDS011;22011;59.912;30.300;2023-08-12T03:28:41;4.75;;;3.25;;
35917;SDS011;22011;59.912;30.300;2023-08-12T03:31:12;5.82;;;3.60;;
35917;SDS011;22011;59.912;30.300;2023-08-12T03:33:40;9.32;;;4.00;;
35917;SDS011;22011;59.912;30.300;2023-08-12T03:36:08;10.13;;;4.50;;
35917;SDS011;22011;59.912;30.300;2023-08-12T03:38:36;4.78;;;3.35;;
35917;SDS011;22011;59.912;30.300;2023-08-12T03:41:06;4.25;;;3.38;;
35917;SDS011;22011;59.912;30.300;2023-08-12T03:43:35;7.53;;;3.75;;
35917;SDS011;22011;59.912;30.300;2023-08-12T03:46:04;8.55;;;3.97;;
35917;SDS011;22011;59.912;30.300;2023-08-12T03:48:32;6.40;;;3.88;;
35917;SDS011;22011;59.912;30.300;2023-08-12T03:51:00;4.15;;;3.63;;
35917;SDS011;22011;59.912;30.300;2023-08-12T03:53:28;5.65;;;3.40;;
35917;SDS011;22011;59.912;30.300;2023-08-12T03:55:56;9.13;;;3.22;;
35917;SDS011;22011;59.912;30.300;2023-08-12T03:58:25;6.63;;;3.97;;
35917;SDS011;22011;59.912;30.300;2023-08-12T04:00:53;6.68;;;3.67;;
35917;SDS011;22011;59.912;30.300;2023-08-12T04:03:21;5.95;;;3.08;;
35917;SDS011;22011;59.912;30.300;2023-08-12T04:05:48;8.25;;;3.63;;
35917;SDS011;22011;59.912;30.300;2023-08-12T04:10:46;7.53;;;3.00;;
35917;SDS011;22011;59.912;30.300;2023-08-12T04:13:14;5.13;;;3.13;;
35917;SDS011;22011;59.912;30.300;2023-08-12T04:15:48;9.85;;;3.65;;
35917;SDS011;22011;59.912;30.300;2023-08-12T04:18:19;4.68;;;3.20;;
35917;SDS011;22011;59.912;30.300;2023-08-12T04:20:48;7.25;;;3.35;;
35917;SDS011;22011;59.912;30.300;2023-08-12T04:23:16;4.45;;;3.10;;
35917;SDS011;22011;59.912;30.300;2023-08-12T04:25:44;9.02;;;3.53;;
35917;SDS011;22011;59.912;30.300;2023-08-12T04:28:13;10.35;;;3.28;;
35917;SDS011;22011;59.912;30.300;2023-08-12T04:30:41;5.70;;;3.10;;
35917;SDS011;22011;59.912;30.300;2023-08-12T04:33:12;5.05;;;2.90;;
35917;SDS011;22011;59.912;30.300;2023-08-12T04:35:40;4.50;;;3.17;;
35917;SDS011;22011;59.912;30.300;2023-08-12T04:38:08;6.10;;;3.08;;
35917;SDS011;22011;59.912;30.300;2023-08-12T04:40:38;6.93;;;3.10;;
35917;SDS011;22011;59.912;30.300;2023-08-12T04:43:07;6.03;;;2.75;;
35917;SDS011;22011;59.912;30.300;2023-08-12T04:45:35;4.28;;;2.80;;
35917;SDS011;22011;59.912;30.300;2023-08-12T04:48:05;5.13;;;3.40;;
35917;SDS011;22011;59.912;30.300;2023-08-12T04:50:36;4.97;;;3.10;;
35917;SDS011;22011;59.912;30.300;2023-08-12T04:53:04;5.45;;;3.10;;
35917;SDS011;22011;59.912;30.300;2023-08-12T04:55:32;4.35;;;3.00;;
35917;SDS011;22011;59.912;30.300;2023-08-12T04:58:01;7.73;;;3.10;;
35917;SDS011;22011;59.912;30.300;2023-08-12T05:00:30;8.10;;;3.85;;
35917;SDS011;22011;59.912;30.300;2023-08-12T05:02:58;7.07;;;3.20;;
35917;SDS011;22011;59.912;30.300;2023-08-12T05:05:26;8.13;;;3.25;;
35917;SDS011;22011;59.912;30.300;2023-08-12T05:07:55;10.60;;;3.47;;
35917;SDS011;22011;59.912;30.300;2023-08-12T05:10:23;8.50;;;3.25;;
35917;SDS011;22011;59.912;30.300;2023-08-12T05:12:51;7.00;;;3.20;;
35917;SDS011;22011;59.912;30.300;2023-08-12T05:15:20;6.57;;;2.90;;
35917;SDS011;22011;59.912;30.300;2023-08-12T05:17:49;7.07;;;2.90;;
35917;SDS011;22011;59.912;30.300;2023-08-12T05:20:20;5.60;;;3.70;;
35917;SDS011;22011;59.912;30.300;2023-08-12T05:22:47;8.45;;;3.67;;
35917;SDS011;22011;59.912;30.300;2023-08-12T05:25:16;9.05;;;3.95;;
35917;SDS011;22011;59.912;30.300;2023-08-12T05:27:44;5.17;;;3.50;;
35917;SDS011;22011;59.912;30.300;2023-08-12T05:30:12;9.70;;;4.47;;
35917;SDS011;22011;59.912;30.300;2023-08-12T05:32:40;9.70;;;3.22;;
35917;SDS011;22011;59.912;30.300;2023-08-12T05:35:08;5.78;;;2.90;;
35917;SDS011;22011;59.912;30.300;2023-08-12T05:37:36;14.60;;;3.20;;
35917;SDS011;22011;59.912;30.300;2023-08-12T05:40:04;11.32;;;3.22;;
35917;SDS011;22011;59.912;30.300;2023-08-12T05:42:35;8.10;;;3.65;;
35917;SDS011;22011;59.912;30.300;2023-08-12T05:45:03;10.27;;;3.63;;
35917;SDS011;22011;59.912;30.300;2023-08-12T05:47:32;6.95;;;3.45;;
35917;SDS011;22011;59.912;30.300;2023-08-12T05:49:59;6.35;;;3.15;;
35917;SDS011;22011;59.912;30.300;2023-08-12T05:52:27;4.75;;;2.42;;
35917;SDS011;22011;59.912;30.300;2023-08-12T05:54:54;4.75;;;2.95;;
35917;SDS011;22011;59.912;30.300;2023-08-12T05:57:22;5.70;;;3.08;;
35917;SDS011;22011;59.912;30.300;2023-08-12T05:59:51;6.80;;;3.35;;
35917;SDS011;22011;59.912;30.300;2023-08-12T06:02:19;6.67;;;3.27;;
35917;SDS011;22011;59.912;30.300;2023-08-12T06:04:47;7.78;;;3.05;;
35917;SDS011;22011;59.912;30.300;2023-08-12T06:07:14;7.40;;;3.50;;
35917;SDS011;22011;59.912;30.300;2023-08-12T06:09:42;7.00;;;3.22;;
35917;SDS011;22011;59.912;30.300;2023-08-12T06:12:09;6.53;;;3.20;;
35917;SDS011;22011;59.912;30.300;2023-08-12T06:14:37;8.30;;;4.18;;
35917;SDS011;22011;59.912;30.300;2023-08-12T06:17:06;5.65;;;2.90;;
35917;SDS011;22011;59.912;30.300;2023-08-12T06:19:34;10.02;;;3.28;;
35917;SDS011;22011;59.912;30.300;2023-08-12T06:22:02;7.28;;;3.38;;
35917;SDS011;22011;59.912;30.300;2023-08-12T06:24:30;5.57;;;3.30;;
35917;SDS011;22011;59.912;30.300;2023-08-12T06:26:57;4.35;;;3.17;;
35917;SDS011;22011;59.912;30.300;2023-08-12T06:29:25;5.25;;;2.67;;
35917;SDS011;22011;59.912;30.300;2023-08-12T06:31:53;8.32;;;3.10;;
35917;SDS011;22011;59.912;30.300;2023-08-12T06:34:22;5.18;;;2.50;;
35917;SDS011;22011;59.912;30.300;2023-08-12T06:36:50;6.03;;;2.83;;
35917;SDS011;22011;59.912;30.300;2023-08-12T06:39:17;2.88;;;2.08;;
35917;SDS011;22011;59.912;30.300;2023-08-12T06:41:45;5.32;;;2.72;;
35917;SDS011;22011;59.912;30.300;2023-08-12T06:44:12;3.60;;;2.53;;
35917;SDS011;22011;59.912;30.300;2023-08-12T06:46:40;10.38;;;3.70;;
35917;SDS011;22011;59.912;30.300;2023-08-12T06:49:08;9.52;;;2.67;;
35917;SDS011;22011;59.912;30.300;2023-08-12T06:51:37;10.32;;;2.83;;
35917;SDS011;22011;59.912;30.300;2023-08-12T06:54:05;5.68;;;2.78;;
35917;SDS011;22011;59.912;30.300;2023-08-12T06:56:32;4.00;;;2.50;;
35917;SDS011;22011;59.912;30.300;2023-08-12T06:59:00;5.82;;;2.80;;
35917;SDS011;22011;59.912;30.300;2023-08-12T07:01:27;8.45;;;2.85;;
35917;SDS011;22011;59.912;30.300;2023-08-12T07:03:55;6.15;;;2.65;;
35917;SDS011;22011;59.912;30.300;2023-08-12T07:06:23;2.47;;;1.98;;
35917;SDS011;22011;59.912;30.300;2023-08-12T07:08:52;3.80;;;2.00;;
35917;SDS011;22011;59.912;30.300;2023-08-12T07:11:19;5.60;;;2.35;;
35917;SDS011;22011;59.912;30.300;2023-08-12T07:13:47;4.78;;;2.45;;
35917;SDS011;22011;59.912;30.300;2023-08-12T07:16:14;8.68;;;2.53;;
35917;SDS011;22011;59.912;30.300;2023-08-12T07:18:42;8.55;;;2.50;;
35917;SDS011;22011;59.912;30.300;2023-08-12T07:21:09;6.30;;;2.80;;
35917;SDS011;22011;59.912;30.300;2023-08-12T07:23:37;8.23;;;3.30;;
35917;SDS011;22011;59.912;30.300;2023-08-12T07:26:06;5.18;;;2.88;;
35917;SDS011;22011;59.912;30.300;2023-08-12T07:28:34;8.38;;;2.67;;
35917;SDS011;22011;59.912;30.300;2023-08-12T07:31:01;8.50;;;2.47;;
35917;SDS011;22011;59.912;30.300;2023-08-12T07:33:29;6.88;;;3.13;;
35917;SDS011;22011;59.912;30.300;2023-08-12T07:35:56;7.00;;;2.60;;
35917;SDS011;22011;59.912;30.300;2023-08-12T07:38:24;5.65;;;3.10;;
35917;SDS011;22011;59.912;30.300;2023-08-12T07:40:52;5.20;;;2.45;;
35917;SDS011;22011;59.912;30.300;2023-08-12T07:43:21;8.50;;;3.42;;
35917;SDS011;22011;59.912;30.300;2023-08-12T07:45:50;5.07;;;2.53;;
35917;SDS011;22011;59.912;30.300;2023-08-12T07:48:18;4.00;;;2.97;;
35917;SDS011;22011;59.912;30.300;2023-08-12T07:50:46;4.53;;;2.90;;
35917;SDS011;22011;59.912;30.300;2023-08-12T07:53:15;11.13;;;3.67;;
35917;SDS011;22011;59.912;30.300;2023-08-12T07:55:42;11.35;;;4.30;;
35917;SDS011;22011;59.912;30.300;2023-08-12T07:58:10;26.33;;;4.50;;
35917;SDS011;22011;59.912;30.300;2023-08-12T08:00:39;20.23;;;3.55;;
35917;SDS011;22011;59.912;30.300;2023-08-12T08:03:07;10.07;;;3.42;;
35917;SDS011;22011;59.912;30.300;2023-08-12T08:05:35;20.63;;;3.75;;
35917;SDS011;22011;59.912;30.300;2023-08-12T08:08:02;14.30;;;3.45;;
35917;SDS011;22011;59.912;30.300;2023-08-12T08:10:30;8.35;;;3.30;;
35917;SDS011;22011;59.912;30.300;2023-08-12T08:12:58;7.95;;;3.53;;
35917;SDS011;22011;59.912;30.300;2023-08-12T08:15:26;6.03;;;3.03;;
35917;SDS011;22011;59.912;30.300;2023-08-12T08:17:55;7.78;;;3.53;;
35917;SDS011;22011;59.912;30.300;2023-08-12T08:20:23;12.70;;;3.08;;
35917;SDS011;22011;59.912;30.300;2023-08-12T08:22:50;17.67;;;3.40;;
35917;SDS011;22011;59.912;30.300;2023-08-12T08:25:21;8.45;;;3.58;;
35917;SDS011;22011;59.912;30.300;2023-08-12T08:27:48;11.63;;;3.30;;
35917;SDS011;22011;59.912;30.300;2023-08-12T08:30:16;10.18;;;3.47;;
35917;SDS011;22011;59.912;30.300;2023-08-12T08:32:44;12.20;;;3.05;;
35917;SDS011;22011;59.912;30.300;2023-08-12T08:35:14;5.88;;;3.63;;
35917;SDS011;22011;59.912;30.300;2023-08-12T08:37:42;7.47;;;3.63;;
35917;SDS011;22011;59.912;30.300;2023-08-12T08:40:10;7.55;;;3.90;;
35917;SDS011;22011;59.912;30.300;2023-08-12T08:42:38;8.27;;;3.55;;
35917;SDS011;22011;59.912;30.300;2023-08-12T08:45:09;9.45;;;3.95;;
35917;SDS011;22011;59.912;30.300;2023-08-12T08:47:41;11.18;;;3.47;;
35917;SDS011;22011;59.912;30.300;2023-08-12T08:50:09;6.97;;;3.90;;
35917;SDS011;22011;59.912;30.300;2023-08-12T08:52:38;28.67;;;4.18;;
35917;SDS011;22011;59.912;30.300;2023-08-12T08:55:07;13.00;;;3.53;;
35917;SDS011;22011;59.912;30.300;2023-08-12T08:57:36;7.07;;;3.72;;
35917;SDS011;22011;59.912;30.300;2023-08-12T09:00:06;9.55;;;3.35;;
35917;SDS011;22011;59.912;30.300;2023-08-12T09:02:35;10.35;;;3.50;;
35917;SDS011;22011;59.912;30.300;2023-08-12T09:05:04;6.50;;;3.10;;
35917;SDS011;22011;59.912;30.300;2023-08-12T09:07:33;6.35;;;3.40;;
35917;SDS011;22011;59.912;30.300;2023-08-12T09:10:03;3.45;;;2.70;;
35917;SDS011;22011;59.912;30.300;2023-08-12T09:12:31;6.90;;;2.90;;
35917;SDS011;22011;59.912;30.300;2023-08-12T09:15:00;8.55;;;2.78;;
35917;SDS011;22011;59.912;30.300;2023-08-12T09:17:28;5.13;;;3.13;;
35917;SDS011;22011;59.912;30.300;2023-08-12T09:19:55;6.35;;;4.22;;
35917;SDS011;22011;59.912;30.300;2023-08-12T09:22:24;3.25;;;2.90;;
35917;SDS011;22011;59.912;30.300;2023-08-12T09:24:55;7.60;;;6.57;;
35917;SDS011;22011;59.912;30.300;2023-08-12T09:27:25;3.45;;;2.60;;
35917;SDS011;22011;59.912;30.300;2023-08-12T09:29:55;6.57;;;3.25;;
35917;SDS011;22011;59.912;30.300;2023-08-12T09:32:23;4.88;;;2.70;;
35917;SDS011;22011;59.912;30.300;2023-08-12T09:34:51;4.90;;;2.92;;
35917;SDS011;22011;59.912;30.300;2023-08-12T09:37:20;3.90;;;2.53;;
35917;SDS011;22011;59.912;30.300;2023-08-12T09:39:50;4.35;;;2.33;;
35917;SDS011;22011;59.912;30.300;2023-08-12T09:42:18;5.78;;;2.97;;
35917;SDS011;22011;59.912;30.300;2023-08-12T09:44:47;4.53;;;2.97;;
35917;SDS011;22011;59.912;30.300;2023-08-12T09:47:15;3.58;;;2.65;;
35917;SDS011;22011;59.912;30.300;2023-08-12T09:49:43;4.80;;;2.53;;
35917;SDS011;22011;59.912;30.300;2023-08-12T09:52:11;4.97;;;2.60;;
35917;SDS011;22011;59.912;30.300;2023-08-12T09:54:39;7.72;;;2.70;;
35917;SDS011;22011;59.912;30.300;2023-08-12T09:57:08;3.40;;;2.55;;
35917;SDS011;22011;59.912;30.300;2023-08-12T10:02:09;8.07;;;3.10;;
35917;SDS011;22011;59.912;30.300;2023-08-12T10:04:44;6.03;;;2.90;;
35917;SDS011;22011;59.912;30.300;2023-08-12T10:07:13;6.87;;;2.67;;
35917;SDS011;22011;59.912;30.300;2023-08-12T10:09:41;3.42;;;2.30;;
35917;SDS011;22011;59.912;30.300;2023-08-12T10:12:10;3.90;;;2.25;;
35917;SDS011;22011;59.912;30.300;2023-08-12T10:14:39;6.57;;;2.45;;
35917;SDS011;22011;59.912;30.300;2023-08-12T10:17:07;3.60;;;2.20;;
35917;SDS011;22011;59.912;30.300;2023-08-12T10:19:36;6.00;;;2.67;;
35917;SDS011;22011;59.912;30.300;2023-08-12T10:22:10;6.32;;;2.25;;
35917;SDS011;22011;59.912;30.300;2023-08-12T10:24:39;6.43;;;3.58;;
35917;SDS011;22011;59.912;30.300;2023-08-12T10:27:09;2.90;;;2.45;;
35917;SDS011;22011;59.912;30.300;2023-08-12T10:29:41;9.35;;;2.33;;
35917;SDS011;22011;59.912;30.300;2023-08-12T10:32:10;4.60;;;2.55;;
35917;SDS011;22011;59.912;30.300;2023-08-12T10:34:40;5.90;;;1.90;;
35917;SDS011;22011;59.912;30.300;2023-08-12T10:37:08;3.55;;;2.83;;
35917;SDS011;22011;59.912;30.300;2023-08-12T10:39:37;6.80;;;2.60;;
35917;SDS011;22011;59.912;30.300;2023-08-12T10:42:05;3.88;;;2.90;;
35917;SDS011;22011;59.912;30.300;2023-08-12T10:44:38;4.05;;;3.10;;
35917;SDS011;22011;59.912;30.300;2023-08-12T10:47:07;5.60;;;2.80;;
35917;SDS011;22011;59.912;30.300;2023-08-12T10:49:39;18.35;;;3.28;;
35917;SDS011;22011;59.912;30.300;2023-08-12T10:52:19;3.42;;;2.78;;
35917;SDS011;22011;59.912;30.300;2023-08-12T10:54:54;6.47;;;2.70;;
35917;SDS011;22011;59.912;30.300;2023-08-12T10:57:34;5.10;;;2.65;;
35917;SDS011;22011;59.912;30.300;2023-08-12T11:00:04;4.93;;;3.55;;
35917;SDS011;22011;59.912;30.300;2023-08-12T11:05:04;5.30;;;3.17;;
35917;SDS011;22011;59.912;30.300;2023-08-12T11:07:37;3.10;;;2.50;;
35917;SDS011;22011;59.912;30.300;2023-08-12T11:10:09;7.68;;;2.70;;
35917;SDS011;22011;59.912;30.300;2023-08-12T11:12:39;3.72;;;2.80;;
35917;SDS011;22011;59.912;30.300;2023-08-12T11:15:07;8.18;;;2.40;;
35917;SDS011;22011;59.912;30.300;2023-08-12T11:20:07;3.70;;;2.95;;
35917;SDS011;22011;59.912;30.300;2023-08-12T11:22:37;3.35;;;2.72;;
35917;SDS011;22011;59.912;30.300;2023-08-12T11:25:06;4.97;;;3.30;;
35917;SDS011;22011;59.912;30.300;2023-08-12T11:27:36;3.63;;;3.20;;
35917;SDS011;22011;59.912;30.300;2023-08-12T11:30:05;4.10;;;3.30;;
35917;SDS011;22011;59.912;30.300;2023-08-12T11:32:34;5.10;;;3.90;;
35917;SDS011;22011;59.912;30.300;2023-08-12T11:35:02;4.07;;;3.30;;
35917;SDS011;22011;59.912;30.300;2023-08-12T11:37:33;4.85;;;3.55;;
35917;SDS011;22011;59.912;30.300;2023-08-12T11:40:02;10.52;;;3.25;;
35917;SDS011;22011;59.912;30.300;2023-08-12T11:42:30;5.20;;;3.15;;
35917;SDS011;22011;59.912;30.300;2023-08-12T11:44:58;4.57;;;3.00;;
35917;SDS011;22011;59.912;30.300;2023-08-12T11:47:26;17.70;;;4.30;;
35917;SDS011;22011;59.912;30.300;2023-08-12T11:49:54;9.88;;;3.45;;
35917;SDS011;22011;59.912;30.300;2023-08-12T11:52:21;6.32;;;3.47;;
35917;SDS011;22011;59.912;30.300;2023-08-12T11:54:51;6.22;;;3.80;;
35917;SDS011;22011;59.912;30.300;2023-08-12T11:57:21;4.40;;;3.63;;
35917;SDS011;22011;59.912;30.300;2023-08-12T11:59:49;6.68;;;3.85;;
35917;SDS011;22011;59.912;30.300;2023-08-12T12:02:17;3.88;;;3.47;;
35917;SDS011;22011;59.912;30.300;2023-08-12T12:04:45;4.38;;;3.42;;
35917;SDS011;22011;59.912;30.300;2023-08-12T12:07:19;4.38;;;3.38;;
35917;SDS011;22011;59.912;30.300;2023-08-12T12:09:50;5.47;;;3.65;;
35917;SDS011;22011;59.912;30.300;2023-08-12T12:12:21;5.63;;;2.90;;
35917;SDS011;22011;59.912;30.300;2023-08-12T12:14:50;6.68;;;3.08;;
35917;SDS011;22011;59.912;30.300;2023-08-12T12:17:20;3.55;;;2.85;;
35917;SDS011;22011;59.912;30.300;2023-08-12T12:19:54;5.03;;;3.50;;
35917;SDS011;22011;59.912;30.300;2023-08-12T12:22:25;3.72;;;3.10;;
35917;SDS011;22011;59.912;30.300;2023-08-12T12:24:58;6.22;;;3.10;;
35917;SDS011;22011;59.912;30.300;2023-08-12T12:27:26;4.20;;;3.22;;
35917;SDS011;22011;59.912;30.300;2023-08-12T12:29:54;6.10;;;3.28;;
35917;SDS011;22011;59.912;30.300;2023-08-12T12:32:21;4.93;;;3.38;;
35917;SDS011;22011;59.912;30.300;2023-08-12T12:34:49;9.20;;;3.13;;
35917;SDS011;22011;59.912;30.300;2023-08-12T12:37:18;5.60;;;3.45;;
35917;SDS011;22011;59.912;30.300;2023-08-12T12:39:45;3.15;;;2.65;;
35917;SDS011;22011;59.912;30.300;2023-08-12T12:42:14;5.05;;;2.80;;
35917;SDS011;22011;59.912;30.300;2023-08-12T12:44:42;3.17;;;2.70;;
35917;SDS011;22011;59.912;30.300;2023-08-12T12:47:10;3.92;;;2.80;;
35917;SDS011;22011;59.912;30.300;2023-08-12T12:49:38;5.75;;;2.58;;
35917;SDS011;22011;59.912;30.300;2023-08-12T12:52:07;3.42;;;2.30;;
35917;SDS011;22011;59.912;30.300;2023-08-12T12:54:34;3.15;;;2.35;;
35917;SDS011;22011;59.912;30.300;2023-08-12T12:57:02;3.45;;;2.55;;
35917;SDS011;22011;59.912;30.300;2023-08-12T12:59:32;7.82;;;2.47;;
35917;SDS011;22011;59.912;30.300;2023-08-12T13:01:59;8.27;;;2.70;;
35917;SDS011;22011;59.912;30.300;2023-08-12T13:04:27;3.35;;;2.13;;
35917;SDS011;22011;59.912;30.300;2023-08-12T13:06:54;3.63;;;2.25;;
35917;SDS011;22011;59.912;30.300;2023-08-12T13:09:22;3.17;;;2.40;;
35917;SDS011;22011;59.912;30.300;2023-08-12T13:11:50;3.17;;;2.17;;
35917;SDS011;22011;59.912;30.300;2023-08-12T13:14:17;4.63;;;2.08;;
35917;SDS011;22011;59.912;30.300;2023-08-12T13:16:48;7.85;;;3.08;;
35917;SDS011;22011;59.912;30.300;2023-08-12T13:19:15;58.65;;;4.15;;
35917;SDS011;22011;59.912;30.300;2023-08-12T13:21:43;3.08;;;2.05;;
35917;SDS011;22011;59.912;30.300;2023-08-12T13:24:11;22.45;;;2.78;;
35917;SDS011;22011;59.912;30.300;2023-08-12T13:26:38;4.20;;;2.35;;
35917;SDS011;22011;59.912;30.300;2023-08-12T13:29:06;5.40;;;2.20;;
35917;SDS011;22011;59.912;30.300;2023-08-12T13:31:34;7.03;;;2.03;;
35917;SDS011;22011;59.912;30.300;2023-08-12T13:34:03;3.25;;;2.40;;
35917;SDS011;22011;59.912;30.300;2023-08-12T13:36:31;3.85;;;2.35;;
35917;SDS011;22011;59.912;30.300;2023-08-12T13:38:58;4.35;;;2.17;;
35917;SDS011;22011;59.912;30.300;2023-08-12T13:41:26;7.55;;;2.45;;
35917;SDS011;22011;59.912;30.300;2023-08-12T13:43:54;7.65;;;2.30;;
35917;SDS011;22011;59.912;30.300;2023-08-12T13:46:21;5.03;;;2.40;;
35917;SDS011;22011;59.912;30.300;2023-08-12T13:48:49;4.45;;;1.80;;
35917;SDS011;22011;59.912;30.300;2023-08-12T13:51:18;4.82;;;2.20;;
35917;SDS011;22011;59.912;30.300;2023-08-12T13:53:45;4.22;;;1.75;;
35917;SDS011;22011;59.912;30.300;2023-08-12T13:56:13;5.28;;;2.15;;
35917;SDS011;22011;59.912;30.300;2023-08-12T13:58:42;5.00;;;2.07;;
35917;SDS011;22011;59.912;30.300;2023-08-12T14:01:10;4.40;;;1.98;;
35917;SDS011;22011;59.912;30.300;2023-08-12T14:03:38;3.22;;;2.10;;
35917;SDS011;22011;59.912;30.300;2023-08-12T14:06:05;5.82;;;2.30;;
35917;SDS011;22011;59.912;30.300;2023-08-12T14:08:34;9.07;;;2.22;;
35917;SDS011;22011;59.912;30.300;2023-08-12T14:11:02;4.60;;;2.50;;
35917;SDS011;22011;59.912;30.300;2023-08-12T14:13:30;5.13;;;2.40;;
35917;SDS011;22011;59.912;30.300;2023-08-12T14:15:57;3.25;;;2.00;;
35917;SDS011;22011;59.912;30.300;2023-08-12T14:18:25;6.60;;;2.28;;
35917;SDS011;22011;59.912;30.300;2023-08-12T14:20:52;5.03;;;2.10;;
35917;SDS011;22011;59.912;30.300;2023-08-12T14:23:20;6.88;;;2.30;;
35917;SDS011;22011;59.912;30.300;2023-08-12T14:25:50;5.70;;;2.30;;
35917;SDS011;22011;59.912;30.300;2023-08-12T14:28:28;3.28;;;2.47;;
35917;SDS011;22011;59.912;30.300;2023-08-12T14:30:56;7.82;;;2.15;;
35917;SDS011;22011;59.912;30.300;2023-08-12T14:33:24;47.58;;;4.22;;
35917;SDS011;22011;59.912;30.300;2023-08-12T14:35:51;6.05;;;2.40;;
35917;SDS011;22011;59.912;30.300;2023-08-12T14:38:20;4.82;;;2.60;;
35917;SDS011;22011;59.912;30.300;2023-08-12T14:40:47;4.82;;;2.50;;
35917;SDS011;22011;59.912;30.300;2023-08-12T14:43:15;2.42;;;1.83;;
35917;SDS011;22011;59.912;30.300;2023-08-12T14:45:45;4.68;;;2.00;;
35917;SDS011;22011;59.912;30.300;2023-08-12T14:48:13;5.15;;;2.20;;
35917;SDS011;22011;59.912;30.300;2023-08-12T14:50:41;39.38;;;3.25;;
35917;SDS011;22011;59.912;30.300;2023-08-12T14:53:08;6.93;;;2.47;;